Time;durP1;ratioP1;P1;durP2;ratioP2;P2;SDS_P1;SDS_P2;PMS_P1;PMS_P2;Temp;Humidity;BMP_temperature;BMP_pressure;BME280_temperature;BME280_humidity;BME280_pressure;Samples;Min_cycle;Max_cycle;Signal;HPM_P1;HPM_P2
2023/06/28 00:00:08;;;;;;;18.05;6.05;;;;;;;;;;4900486;29;20074;-69
2023/06/28 00:02:35;;;;;;;15.57;5.70;;;;;;;;;;4915207;28;20036;-69
2023/06/28 00:05:09;;;;;;;14.43;6.25;;;;;;;;;;4917872;28;20086;-69
2023/06/28 00:07:34;;;;;;;14.93;6.50;;;;;;;;;;4917889;29;20696;-70
2023/06/28 00:10:02;;;;;;;12.80;6.72;;;;;;;;;;4918648;28;20573;-69
2023/06/28 00:12:28;;;;;;;13.10;6.68;;;;;;;;;;4917133;29;20035;-69
2023/06/28 00:14:54;;;;;;;12.50;5.78;;;;;;;;;;4916753;28;20039;-69
2023/06/28 00:17:19;;;;;;;12.10;5.80;;;;;;;;;;4914554;29;20055;-69
2023/06/28 00:19:47;;;;;;;16.33;6.78;;;;;;;;;;4917136;28;22345;-73
2023/06/28 00:22:16;;;;;;;15.35;7.40;;;;;;;;;;4916393;29;20118;-73
2023/06/28 00:24:41;;;;;;;15.18;6.63;;;;;;;;;;4918821;28;20454;-74
2023/06/28 00:27:06;;;;;;;14.10;6.80;;;;;;;;;;4920124;28;20040;-74
2023/06/28 00:29:31;;;;;;;15.35;7.45;;;;;;;;;;4916742;28;20053;-72
2023/06/28 00:31:57;;;;;;;13.93;7.30;;;;;;;;;;4918192;29;20035;-75
2023/06/28 00:34:22;;;;;;;16.05;6.82;;;;;;;;;;4919298;29;20043;-75
2023/06/28 00:36:47;;;;;;;18.52;8.45;;;;;;;;;;4918477;29;20039;-75
2023/06/28 00:39:13;;;;;;;16.02;7.30;;;;;;;;;;4916745;29;20170;-75
2023/06/28 00:41:40;;;;;;;13.93;7.25;;;;;;;;;;4917627;29;20039;-75
2023/06/28 00:44:06;;;;;;;14.38;6.55;;;;;;;;;;4917111;28;20126;-75
2023/06/28 00:46:31;;;;;;;13.52;6.13;;;;;;;;;;4918476;28;20035;-75
2023/06/28 00:49:01;;;;;;;14.48;6.30;;;;;;;;;;4930484;28;20049;-74
2023/06/28 00:51:28;;;;;;;14.20;6.78;;;;;;;;;;4942816;28;20459;-73
2023/06/28 00:53:53;;;;;;;13.65;6.40;;;;;;;;;;4941839;28;20032;-73
2023/06/28 00:56:19;;;;;;;15.20;6.78;;;;;;;;;;4941771;28;20041;-74
2023/06/28 00:58:46;;;;;;;15.57;7.40;;;;;;;;;;4934367;28;20066;-74
2023/06/28 01:01:14;;;;;;;14.63;6.50;;;;;;;;;;4939298;28;22476;-74
2023/06/28 01:03:40;;;;;;;16.00;6.40;;;;;;;;;;4943681;28;20193;-74
2023/06/28 01:06:05;;;;;;;12.23;6.32;;;;;;;;;;4942203;28;20062;-74
2023/06/28 01:08:34;;;;;;;13.55;6.35;;;;;;;;;;4936285;28;20101;-73
2023/06/28 01:11:02;;;;;;;15.27;6.60;;;;;;;;;;4939730;28;20061;-74
2023/06/28 01:13:28;;;;;;;17.50;6.35;;;;;;;;;;4940158;28;20035;-75
2023/06/28 01:15:53;;;;;;;14.48;6.30;;;;;;;;;;4941305;28;20105;-73
2023/06/28 01:18:21;;;;;;;13.13;6.45;;;;;;;;;;4919709;28;20050;-73
2023/06/28 01:20:47;;;;;;;14.10;6.22;;;;;;;;;;4942468;28;20034;-72
2023/06/28 01:23:12;;;;;;;15.73;7.03;;;;;;;;;;4941335;28;20058;-73
2023/06/28 01:25:37;;;;;;;19.67;6.90;;;;;;;;;;4922181;28;20050;-73
2023/06/28 01:28:03;;;;;;;11.40;6.28;;;;;;;;;;4941763;28;20176;-74
2023/06/28 01:30:29;;;;;;;12.63;6.57;;;;;;;;;;4942344;28;20039;-73
2023/06/28 01:32:57;;;;;;;16.13;6.90;;;;;;;;;;4941967;28;20153;-74
2023/06/28 01:35:22;;;;;;;17.10;7.18;;;;;;;;;;4942661;28;20062;-73
2023/06/28 01:37:49;;;;;;;18.00;7.28;;;;;;;;;;4941817;28;20570;-73
2023/06/28 01:40:15;;;;;;;15.88;7.18;;;;;;;;;;4939954;28;20596;-73
2023/06/28 01:42:41;;;;;;;15.15;6.82;;;;;;;;;;4919102;28;20125;-74
2023/06/28 01:45:06;;;;;;;17.02;7.35;;;;;;;;;;4937914;28;20049;-72
2023/06/28 01:47:37;;;;;;;13.23;7.00;;;;;;;;;;4939618;28;20081;-72
2023/06/28 01:50:05;;;;;;;17.73;6.65;;;;;;;;;;4937173;28;20047;-73
2023/06/28 01:52:30;;;;;;;20.85;7.88;;;;;;;;;;4934828;28;20035;-73
2023/06/28 01:54:55;;;;;;;16.05;7.70;;;;;;;;;;4940244;28;20054;-73
2023/06/28 01:57:21;;;;;;;21.90;7.68;;;;;;;;;;4941831;28;20046;-73
2023/06/28 01:59:46;;;;;;;18.23;7.55;;;;;;;;;;4942552;28;20054;-72
2023/06/28 02:02:11;;;;;;;18.40;8.40;;;;;;;;;;4942630;28;20057;-73
2023/06/28 02:04:36;;;;;;;19.75;8.32;;;;;;;;;;4929420;28;20047;-74
2023/06/28 02:07:02;;;;;;;18.75;8.50;;;;;;;;;;4945728;28;20142;-74
2023/06/28 02:09:27;;;;;;;19.83;8.63;;;;;;;;;;4944580;28;20062;-74
2023/06/28 02:11:52;;;;;;;15.73;8.52;;;;;;;;;;4943801;28;20066;-71
2023/06/28 02:14:18;;;;;;;20.08;9.25;;;;;;;;;;4943543;28;20047;-73
2023/06/28 02:16:45;;;;;;;23.77;10.07;;;;;;;;;;4943465;28;20621;-72
2023/06/28 02:19:12;;;;;;;25.65;11.07;;;;;;;;;;4925217;28;20047;-73
2023/06/28 02:21:40;;;;;;;21.15;10.23;;;;;;;;;;4936649;28;20026;-74
2023/06/28 02:24:06;;;;;;;18.80;9.25;;;;;;;;;;4943175;28;20040;-74
2023/06/28 02:26:32;;;;;;;20.35;8.70;;;;;;;;;;4923327;28;20037;-75
2023/06/28 02:28:57;;;;;;;20.02;8.38;;;;;;;;;;4945879;28;20053;-74
2023/06/28 02:31:22;;;;;;;17.85;7.20;;;;;;;;;;4943555;28;20113;-74
2023/06/28 02:33:47;;;;;;;18.17;7.30;;;;;;;;;;4944606;28;20108;-74
2023/06/28 02:36:13;;;;;;;16.58;7.45;;;;;;;;;;4945925;28;20046;-74
2023/06/28 02:38:38;;;;;;;17.33;7.25;;;;;;;;;;4945802;28;20051;-74
2023/06/28 02:41:06;;;;;;;19.33;7.45;;;;;;;;;;4945447;28;20061;-73
2023/06/28 02:43:31;;;;;;;16.58;7.63;;;;;;;;;;4943675;28;20806;-74
2023/06/28 02:45:56;;;;;;;18.52;7.75;;;;;;;;;;4943856;28;20135;-74
2023/06/28 02:48:22;;;;;;;18.73;8.68;;;;;;;;;;4944852;28;20087;-73
2023/06/28 02:50:47;;;;;;;18.30;8.45;;;;;;;;;;4937815;28;20057;-74
2023/06/28 02:53:15;;;;;;;20.92;8.35;;;;;;;;;;4948780;28;20038;-74
2023/06/28 02:55:42;;;;;;;20.25;7.78;;;;;;;;;;4943028;28;20057;-74
2023/06/28 02:58:08;;;;;;;16.33;7.40;;;;;;;;;;4942994;28;20791;-71
2023/06/28 03:00:33;;;;;;;17.08;7.57;;;;;;;;;;4923045;28;20041;-74
2023/06/28 03:02:58;;;;;;;16.70;7.63;;;;;;;;;;4938544;28;20123;-75
2023/06/28 03:05:24;;;;;;;14.73;7.88;;;;;;;;;;4940843;28;20110;-74
2023/06/28 03:07:52;;;;;;;17.48;7.95;;;;;;;;;;4943870;28;20102;-74
2023/06/28 03:10:17;;;;;;;15.75;8.00;;;;;;;;;;4948826;28;20066;-75
2023/06/28 03:12:44;;;;;;;18.95;8.35;;;;;;;;;;4943988;28;20031;-75
2023/06/28 03:15:10;;;;;;;19.15;8.38;;;;;;;;;;4942612;28;20035;-75
2023/06/28 03:17:35;;;;;;;18.90;8.43;;;;;;;;;;4938274;28;20039;-75
2023/06/28 03:20:00;;;;;;;24.75;8.95;;;;;;;;;;4944167;28;20487;-75
2023/06/28 03:22:26;;;;;;;20.85;9.00;;;;;;;;;;4942986;28;20112;-74
2023/06/28 03:24:53;;;;;;;18.98;8.25;;;;;;;;;;4944766;28;20039;-71
2023/06/28 03:27:19;;;;;;;18.08;8.20;;;;;;;;;;4926044;28;20035;-75
2023/06/28 03:29:44;;;;;;;18.85;8.48;;;;;;;;;;4944141;28;20097;-74
2023/06/28 03:32:09;;;;;;;18.15;8.30;;;;;;;;;;4942453;28;20039;-73
2023/06/28 03:34:40;;;;;;;16.70;8.57;;;;;;;;;;4942474;28;20953;-73
2023/06/28 03:37:07;;;;;;;23.55;8.93;;;;;;;;;;4940792;28;20106;-74
2023/06/28 03:39:32;;;;;;;20.20;9.40;;;;;;;;;;4941237;28;20046;-74
2023/06/28 03:41:59;;;;;;;19.30;9.50;;;;;;;;;;4944654;28;20041;-75
2023/06/28 03:44:25;;;;;;;22.23;10.10;;;;;;;;;;4944321;28;20034;-75
2023/06/28 03:46:50;;;;;;;22.27;10.13;;;;;;;;;;4941179;28;20035;-73
2023/06/28 03:49:16;;;;;;;18.50;10.18;;;;;;;;;;4921988;28;20067;-73
2023/06/28 03:51:41;;;;;;;23.60;10.43;;;;;;;;;;4937343;28;20127;-74
2023/06/28 03:54:11;;;;;;;18.58;10.73;;;;;;;;;;4945545;28;20055;-74
2023/06/28 03:56:37;;;;;;;20.27;10.20;;;;;;;;;;4944970;28;20113;-74
2023/06/28 03:59:03;;;;;;;24.88;11.18;;;;;;;;;;4943291;28;20053;-73
2023/06/28 04:01:28;;;;;;;22.13;11.13;;;;;;;;;;4942215;28;20043;-75
2023/06/28 04:03:53;;;;;;;18.85;11.75;;;;;;;;;;4943179;28;20039;-75
2023/06/28 04:06:19;;;;;;;25.42;11.65;;;;;;;;;;4941813;28;20039;-75
2023/06/28 04:08:46;;;;;;;22.83;11.32;;;;;;;;;;4940880;28;20047;-74
2023/06/28 04:11:11;;;;;;;27.30;13.27;;;;;;;;;;4941434;28;20848;-75
2023/06/28 04:13:39;;;;;;;23.05;12.88;;;;;;;;;;4942758;28;20050;-74
2023/06/28 04:16:04;;;;;;;29.92;13.27;;;;;;;;;;4940778;28;20747;-73
2023/06/28 04:18:30;;;;;;;29.88;13.52;;;;;;;;;;4920674;28;20069;-75
2023/06/28 04:20:55;;;;;;;21.98;13.00;;;;;;;;;;4940940;28;20047;-75
2023/06/28 04:23:20;;;;;;;26.45;14.07;;;;;;;;;;4932557;28;20031;-74
2023/06/28 04:25:46;;;;;;;27.02;16.20;;;;;;;;;;4936446;28;20043;-73
2023/06/28 04:28:11;;;;;;;31.05;17.85;;;;;;;;;;4939866;28;20035;-74
2023/06/28 04:30:37;;;;;;;30.85;17.35;;;;;;;;;;4940308;28;20035;-77
2023/06/28 04:33:04;;;;;;;29.55;17.45;;;;;;;;;;4938286;28;20118;-76
2023/06/28 04:35:34;;;;;;;34.55;17.27;;;;;;;;;;4941249;28;20497;-75
2023/06/28 04:38:03;;;;;;;24.75;14.93;;;;;;;;;;4924660;28;20038;-76
2023/06/28 04:40:28;;;;;;;27.00;14.43;;;;;;;;;;4939899;28;20069;-75
2023/06/28 04:42:53;;;;;;;25.90;14.48;;;;;;;;;;4942073;28;20031;-74
2023/06/28 04:45:21;;;;;;;25.30;14.55;;;;;;;;;;4924820;28;20035;-76
2023/06/28 04:47:46;;;;;;;23.33;12.93;;;;;;;;;;4940366;28;20066;-76
2023/06/28 04:50:12;;;;;;;24.52;13.80;;;;;;;;;;4940589;28;20147;-75
2023/06/28 04:52:37;;;;;;;26.13;15.25;;;;;;;;;;4937349;28;20031;-76
2023/06/28 04:55:02;;;;;;;22.98;13.98;;;;;;;;;;4937043;28;20039;-76
2023/06/28 04:57:28;;;;;;;24.10;14.75;;;;;;;;;;4942942;28;20042;-76
2023/06/28 04:59:57;;;;;;;23.10;13.98;;;;;;;;;;4940528;28;20069;-75
2023/06/28 05:02:25;;;;;;;26.33;15.18;;;;;;;;;;4940646;28;22974;-76
2023/06/28 05:04:51;;;;;;;23.30;15.90;;;;;;;;;;4940135;28;20059;-76
2023/06/28 05:07:17;;;;;;;24.33;16.05;;;;;;;;;;4924260;28;20046;-72
2023/06/28 05:09:42;;;;;;;25.88;14.80;;;;;;;;;;4940972;28;20153;-73
2023/06/28 05:12:07;;;;;;;24.00;15.18;;;;;;;;;;4940345;28;20867;-74
2023/06/28 05:14:35;;;;;;;25.95;14.93;;;;;;;;;;4940363;28;20542;-72
2023/06/28 05:17:00;;;;;;;30.40;16.33;;;;;;;;;;4939912;28;20499;-70
2023/06/28 05:19:26;;;;;;;26.40;16.50;;;;;;;;;;4939921;28;20105;-73
2023/06/28 05:21:51;;;;;;;33.72;20.33;;;;;;;;;;4938935;28;20039;-73
2023/06/28 05:24:20;;;;;;;45.38;22.45;;;;;;;;;;4927686;28;20038;-73
2023/06/28 05:26:45;;;;;;;39.33;22.88;;;;;;;;;;4939789;28;20086;-72
2023/06/28 05:29:10;;;;;;;48.55;25.27;;;;;;;;;;4941392;28;20900;-74
2023/06/28 05:31:40;;;;;;;44.00;26.42;;;;;;;;;;4939793;28;20050;-73
2023/06/28 05:34:05;;;;;;;42.42;25.15;;;;;;;;;;4940758;28;20116;-74
2023/06/28 05:36:31;;;;;;;44.92;24.92;;;;;;;;;;4944198;28;20103;-74
2023/06/28 05:38:57;;;;;;;50.35;30.85;;;;;;;;;;4939527;28;20047;-73
2023/06/28 05:41:22;;;;;;;45.20;27.27;;;;;;;;;;4940399;28;20472;-71
2023/06/28 05:43:50;;;;;;;44.90;25.40;;;;;;;;;;4941800;28;20062;-74
2023/06/28 05:46:16;;;;;;;47.85;24.77;;;;;;;;;;4920324;28;20038;-73
2023/06/28 05:48:41;;;;;;;40.95;24.55;;;;;;;;;;4924397;28;20053;-73
2023/06/28 05:51:09;;;;;;;41.67;21.60;;;;;;;;;;4941758;28;20062;-73
2023/06/28 05:53:37;;;;;;;42.95;24.17;;;;;;;;;;4942365;28;20035;-72
2023/06/28 05:56:03;;;;;;;51.33;23.27;;;;;;;;;;4939157;28;20081;-74
2023/06/28 05:58:28;;;;;;;35.78;20.55;;;;;;;;;;4943431;28;20046;-73
2023/06/28 06:00:53;;;;;;;44.60;24.90;;;;;;;;;;4919069;28;20039;-73
2023/06/28 06:03:19;;;;;;;39.80;23.08;;;;;;;;;;4941005;28;20516;-73
2023/06/28 06:05:46;;;;;;;46.83;25.67;;;;;;;;;;4940630;28;20034;-71
2023/06/28 06:08:11;;;;;;;43.83;25.88;;;;;;;;;;4938482;28;20527;-73
2023/06/28 06:10:37;;;;;;;43.15;27.20;;;;;;;;;;4939926;28;20039;-73
2023/06/28 06:13:02;;;;;;;39.67;24.80;;;;;;;;;;4939988;28;20096;-73
2023/06/28 06:15:27;;;;;;;47.75;25.20;;;;;;;;;;4938910;28;20058;-72
2023/06/28 06:17:55;;;;;;;50.70;25.98;;;;;;;;;;4938441;28;20082;-72
2023/06/28 06:20:20;;;;;;;42.42;24.55;;;;;;;;;;4917596;28;20042;-72
2023/06/28 06:22:45;;;;;;;51.10;27.58;;;;;;;;;;4939365;28;20166;-75
2023/06/28 06:25:11;;;;;;;41.97;26.42;;;;;;;;;;4941132;28;20053;-72
2023/06/28 06:27:36;;;;;;;44.65;24.25;;;;;;;;;;4938468;28;20113;-73
2023/06/28 06:30:02;;;;;;;39.88;21.17;;;;;;;;;;4939681;28;20034;-73
2023/06/28 06:32:30;;;;;;;34.63;19.60;;;;;;;;;;4930320;28;20035;-72
2023/06/28 06:34:58;;;;;;;33.22;18.75;;;;;;;;;;4938889;28;21216;-71
2023/06/28 06:37:26;;;;;;;31.05;18.17;;;;;;;;;;4921022;28;20109;-70
2023/06/28 06:39:51;;;;;;;28.23;16.85;;;;;;;;;;4941725;28;20049;-71
2023/06/28 06:42:17;;;;;;;33.55;16.00;;;;;;;;;;4917393;28;20042;-72
2023/06/28 06:44:44;;;;;;;27.80;15.05;;;;;;;;;;4947537;28;20039;-72
2023/06/28 06:47:10;;;;;;;32.63;15.10;;;;;;;;;;4948013;28;20152;-72
2023/06/28 06:49:35;;;;;;;30.95;16.83;;;;;;;;;;4946281;28;20047;-71
2023/06/28 06:52:01;;;;;;;35.38;16.13;;;;;;;;;;4945980;28;20071;-71
2023/06/28 06:54:29;;;;;;;30.65;15.80;;;;;;;;;;4927947;28;20053;-70
2023/06/28 06:56:57;;;;;;;35.80;19.45;;;;;;;;;;4942784;28;20039;-72
2023/06/28 06:59:26;;;;;;;37.90;23.17;;;;;;;;;;4932918;28;20051;-73
2023/06/28 07:01:52;;;;;;;36.13;19.48;;;;;;;;;;4947761;28;20039;-71
2023/06/28 07:04:17;;;;;;;37.05;19.20;;;;;;;;;;4919161;28;20035;-72
2023/06/28 07:06:44;;;;;;;32.38;16.25;;;;;;;;;;4933836;28;20042;-72
2023/06/28 07:09:10;;;;;;;40.15;17.05;;;;;;;;;;4949280;28;20065;-73
2023/06/28 07:11:35;;;;;;;32.30;15.32;;;;;;;;;;4953694;28;20546;-72
2023/06/28 07:14:00;;;;;;;37.63;16.48;;;;;;;;;;4945588;28;20059;-72
2023/06/28 07:16:26;;;;;;;33.95;17.23;;;;;;;;;;4923297;28;20427;-72
2023/06/28 07:18:54;;;;;;;32.75;17.48;;;;;;;;;;4943967;28;20051;-72
2023/06/28 07:21:19;;;;;;;33.30;18.45;;;;;;;;;;4946716;28;20105;-71
2023/06/28 07:23:44;;;;;;;33.58;17.23;;;;;;;;;;4949257;28;20130;-71
2023/06/28 07:26:09;;;;;;;30.20;16.35;;;;;;;;;;4953487;28;20038;-71
2023/06/28 07:28:35;;;;;;;30.50;16.42;;;;;;;;;;4946794;28;20058;-72
2023/06/28 07:31:00;;;;;;;29.15;15.48;;;;;;;;;;4946258;28;20130;-72
2023/06/28 07:33:25;;;;;;;29.60;15.73;;;;;;;;;;4948029;28;20686;-72
2023/06/28 07:35:51;;;;;;;31.05;14.77;;;;;;;;;;4944641;28;20167;-69
2023/06/28 07:38:17;;;;;;;30.05;15.48;;;;;;;;;;4946864;28;20062;-71
2023/06/28 07:40:45;;;;;;;28.90;16.70;;;;;;;;;;4947138;28;20061;-69
2023/06/28 07:43:11;;;;;;;32.45;16.17;;;;;;;;;;4943804;28;20035;-71
2023/06/28 07:45:36;;;;;;;28.77;17.55;;;;;;;;;;4933792;28;20066;-70
2023/06/28 07:48:01;;;;;;;32.72;18.33;;;;;;;;;;4941126;28;20031;-72
2023/06/28 07:50:27;;;;;;;30.00;17.13;;;;;;;;;;4943873;28;22283;-71
2023/06/28 07:52:52;;;;;;;28.92;15.02;;;;;;;;;;4949819;28;20034;-71
2023/06/28 07:55:20;;;;;;;31.27;14.85;;;;;;;;;;4944489;28;20031;-72
2023/06/28 07:57:45;;;;;;;24.85;15.07;;;;;;;;;;4945602;28;20038;-71
2023/06/28 08:00:11;;;;;;;29.27;15.68;;;;;;;;;;4925258;28;20487;-71
2023/06/28 08:02:36;;;;;;;26.17;15.73;;;;;;;;;;4919003;28;20039;-70
2023/06/28 08:05:01;;;;;;;29.55;15.18;;;;;;;;;;4937158;28;20078;-69
2023/06/28 08:07:27;;;;;;;30.08;15.85;;;;;;;;;;4942182;28;20492;-70
2023/06/28 08:09:53;;;;;;;32.47;16.38;;;;;;;;;;4939950;28;20042;-71
2023/06/28 08:12:18;;;;;;;33.72;16.92;;;;;;;;;;4941739;28;20038;-71
2023/06/28 08:14:43;;;;;;;29.92;16.35;;;;;;;;;;4940419;28;20039;-71
2023/06/28 08:17:09;;;;;;;31.25;16.33;;;;;;;;;;4923438;28;20062;-68
2023/06/28 08:19:35;;;;;;;25.70;15.15;;;;;;;;;;4925608;28;20662;-71
2023/06/28 08:22:03;;;;;;;28.80;15.63;;;;;;;;;;4909068;28;20194;-70
2023/06/28 08:24:28;;;;;;;28.42;14.25;;;;;;;;;;4940664;28;20094;-71
2023/06/28 08:26:56;;;;;;;33.20;16.25;;;;;;;;;;4942046;28;20057;-69
2023/06/28 08:29:24;;;;;;;24.20;15.00;;;;;;;;;;4919372;28;20070;-69
2023/06/28 08:31:49;;;;;;;34.40;18.95;;;;;;;;;;4939742;28;20035;-70
2023/06/28 08:34:17;;;;;;;33.08;17.02;;;;;;;;;;4939305;28;20045;-69
2023/06/28 08:36:43;;;;;;;29.83;15.85;;;;;;;;;;4938688;28;20532;-70
2023/06/28 08:39:08;;;;;;;32.85;15.57;;;;;;;;;;4940695;28;20058;-70
2023/06/28 08:41:36;;;;;;;27.42;14.88;;;;;;;;;;4940705;28;20073;-70
2023/06/28 08:44:04;;;;;;;32.05;15.50;;;;;;;;;;4939975;28;20126;-70
2023/06/28 08:46:29;;;;;;;31.17;18.08;;;;;;;;;;4941274;28;20035;-70
2023/06/28 08:48:55;;;;;;;32.40;17.10;;;;;;;;;;4924821;28;20175;-70
2023/06/28 08:51:21;;;;;;;35.53;16.88;;;;;;;;;;4935207;28;20043;-68
2023/06/28 08:53:47;;;;;;;28.88;16.20;;;;;;;;;;4945763;28;22313;-70
2023/06/28 08:56:13;;;;;;;27.00;14.13;;;;;;;;;;4904254;28;20035;-69
2023/06/28 08:58:41;;;;;;;30.25;15.45;;;;;;;;;;4944807;28;20054;-70
2023/06/28 09:01:06;;;;;;;25.92;14.00;;;;;;;;;;4944347;28;20089;-70
2023/06/28 09:03:32;;;;;;;26.30;14.40;;;;;;;;;;4945502;28;20878;-70
2023/06/28 09:05:58;;;;;;;32.00;14.80;;;;;;;;;;4925128;28;20038;-70
2023/06/28 09:08:24;;;;;;;29.35;15.32;;;;;;;;;;4949287;28;20041;-70
2023/06/28 09:10:49;;;;;;;26.17;14.02;;;;;;;;;;4946950;28;20043;-69
2023/06/28 09:13:19;;;;;;;22.10;12.57;;;;;;;;;;4942959;28;20038;-70
2023/06/28 09:15:45;;;;;;;24.63;13.25;;;;;;;;;;4947377;28;20170;-69
2023/06/28 09:18:10;;;;;;;26.73;14.00;;;;;;;;;;4937524;28;20035;-70
2023/06/28 09:20:46;;;;;;;26.88;12.57;;;;;;;;;;4936140;28;20050;-70
2023/06/28 09:23:11;;;;;;;25.80;12.05;;;;;;;;;;4939861;28;21033;-70
2023/06/28 09:25:41;;;;;;;25.75;12.23;;;;;;;;;;4940695;28;20548;-69
2023/06/28 09:28:06;;;;;;;24.38;11.30;;;;;;;;;;4923245;28;20035;-69
2023/06/28 09:30:32;;;;;;;23.95;10.20;;;;;;;;;;4935496;28;20035;-70
2023/06/28 09:32:57;;;;;;;23.83;10.10;;;;;;;;;;4922127;28;20032;-70
2023/06/28 09:35:23;;;;;;;19.83;9.40;;;;;;;;;;4938422;28;20042;-68
2023/06/28 09:38:04;;;;;;;20.85;9.70;;;;;;;;;;4917243;28;20038;-69
2023/06/28 09:40:36;;;;;;;17.63;8.60;;;;;;;;;;4914916;28;20051;-69
2023/06/28 09:43:02;;;;;;;24.30;9.38;;;;;;;;;;4932984;28;20039;-71
2023/06/28 09:45:29;;;;;;;19.13;8.63;;;;;;;;;;4937410;28;20475;-69
2023/06/28 09:47:58;;;;;;;23.42;8.25;;;;;;;;;;4936423;28;20048;-69
2023/06/28 09:50:52;;;;;;;22.10;8.98;;;;;;;;;;4914621;28;20074;-68
2023/06/28 09:53:19;;;;;;;24.13;8.15;;;;;;;;;;4911080;28;20404;-69
2023/06/28 09:55:45;;;;;;;19.33;8.63;;;;;;;;;;4915999;28;20042;-69
2023/06/28 09:58:11;;;;;;;19.30;7.85;;;;;;;;;;4921001;28;20039;-69
2023/06/28 10:00:37;;;;;;;17.27;7.68;;;;;;;;;;4914040;28;20051;-68
2023/06/28 10:03:04;;;;;;;21.25;8.00;;;;;;;;;;4937047;28;20039;-68
2023/06/28 10:05:30;;;;;;;22.60;8.43;;;;;;;;;;4937136;28;20055;-69
2023/06/28 10:07:58;;;;;;;16.83;7.60;;;;;;;;;;4917761;28;20039;-67
2023/06/28 10:10:26;;;;;;;19.00;7.70;;;;;;;;;;4937678;28;20577;-70
2023/06/28 10:12:52;;;;;;;17.90;7.95;;;;;;;;;;4934828;28;20130;-69
2023/06/28 10:15:21;;;;;;;17.50;7.53;;;;;;;;;;4939605;28;20042;-68
2023/06/28 10:17:46;;;;;;;19.88;8.30;;;;;;;;;;4920942;28;20051;-69
2023/06/28 10:20:11;;;;;;;19.30;7.60;;;;;;;;;;4939038;28;20053;-68
2023/06/28 10:22:39;;;;;;;18.83;9.15;;;;;;;;;;4934882;28;20061;-70
2023/06/28 10:25:05;;;;;;;20.58;8.32;;;;;;;;;;4920950;28;22723;-70
2023/06/28 10:27:34;;;;;;;21.17;8.50;;;;;;;;;;4950726;28;20174;-70
2023/06/28 10:29:59;;;;;;;18.63;7.57;;;;;;;;;;4950747;28;20116;-68
2023/06/28 10:32:25;;;;;;;18.23;8.00;;;;;;;;;;4951084;28;20038;-68
2023/06/28 10:34:51;;;;;;;16.55;7.35;;;;;;;;;;4955159;28;20416;-68
2023/06/28 10:37:20;;;;;;;18.23;8.48;;;;;;;;;;4908191;28;20118;-69
2023/06/28 10:39:46;;;;;;;20.60;8.30;;;;;;;;;;4951267;28;20073;-69
2023/06/28 10:42:14;;;;;;;20.67;8.40;;;;;;;;;;4949166;28;20043;-69
2023/06/28 10:44:52;;;;;;;19.48;8.23;;;;;;;;;;4941684;28;20493;-69
2023/06/28 10:47:17;;;;;;;20.90;8.20;;;;;;;;;;4937335;28;20031;-67
2023/06/28 10:50:03;;;;;;;22.00;8.60;;;;;;;;;;4945590;28;21970;-68
2023/06/28 10:52:28;;;;;;;21.25;8.38;;;;;;;;;;4944586;28;20047;-68
2023/06/28 10:54:53;;;;;;;22.27;8.60;;;;;;;;;;4941843;28;20522;-68
2023/06/28 10:57:33;;;;;;;21.25;8.18;;;;;;;;;;4941752;28;20491;-67
2023/06/28 10:59:58;;;;;;;19.92;8.20;;;;;;;;;;4942739;28;20443;-67
2023/06/28 11:02:42;;;;;;;20.67;8.60;;;;;;;;;;4937003;28;20129;-68
2023/06/28 11:05:10;;;;;;;18.20;7.90;;;;;;;;;;4943207;28;20047;-67
2023/06/28 11:07:41;;;;;;;17.35;8.05;;;;;;;;;;4922630;28;20038;-66
2023/06/28 11:10:14;;;;;;;17.40;7.88;;;;;;;;;;4947648;28;20042;-68
2023/06/28 11:12:39;;;;;;;18.88;8.60;;;;;;;;;;4941170;28;20779;-68
2023/06/28 11:15:08;;;;;;;17.77;8.40;;;;;;;;;;4924199;28;20043;-68
2023/06/28 11:17:33;;;;;;;20.80;8.50;;;;;;;;;;4923979;28;20395;-69
2023/06/28 11:20:25;;;;;;;21.75;8.45;;;;;;;;;;4922696;28;20039;-68
2023/06/28 11:22:50;;;;;;;;;;;;;;;;;;4940116;28;20350;-68
2023/06/28 11:25:15;;;;;;;18.73;8.35;;;;;;;;;;4946154;28;19911;-69
2023/06/28 11:27:43;;;;;;;18.45;8.38;;;;;;;;;;4947731;28;20939;-69
2023/06/28 11:30:09;;;;;;;18.75;8.35;;;;;;;;;;4948096;28;20802;-69
2023/06/28 11:32:35;;;;;;;18.58;8.10;;;;;;;;;;4925467;28;20039;-70
2023/06/28 11:35:01;;;;;;;19.08;8.10;;;;;;;;;;4948928;28;20066;-70
2023/06/28 11:37:27;;;;;;;18.15;8.15;;;;;;;;;;4949738;28;20133;-70
2023/06/28 11:39:52;;;;;;;17.20;8.57;;;;;;;;;;4950156;28;20073;-71
2023/06/28 11:42:20;;;;;;;16.92;7.38;;;;;;;;;;4949041;28;20126;-70
2023/06/28 11:44:49;;;;;;;17.65;7.88;;;;;;;;;;4924392;28;20373;-70
2023/06/28 11:47:19;;;;;;;19.08;7.80;;;;;;;;;;4926627;28;20482;-73
2023/06/28 11:49:45;;;;;;;15.85;7.43;;;;;;;;;;4947957;28;20530;-74
2023/06/28 11:52:11;;;;;;;21.15;8.30;;;;;;;;;;4940200;28;20530;-71
2023/06/28 11:54:36;;;;;;;23.10;9.07;;;;;;;;;;4933627;28;20340;-71
2023/06/28 11:57:02;;;;;;;18.08;8.90;;;;;;;;;;4945849;28;20470;-71
2023/06/28 11:59:30;;;;;;;23.15;9.07;;;;;;;;;;4932004;28;20051;-71
2023/06/28 12:02:14;;;;;;;19.42;8.43;;;;;;;;;;4944703;28;20438;-69
2023/06/28 12:04:39;;;;;;;19.13;8.63;;;;;;;;;;4941838;28;20645;-70
2023/06/28 12:07:05;;;;;;;17.80;8.27;;;;;;;;;;4918182;28;20042;-73
2023/06/28 12:09:31;;;;;;;19.45;7.82;;;;;;;;;;4942514;28;20050;-71
2023/06/28 12:11:58;;;;;;;19.50;8.18;;;;;;;;;;4940898;28;20047;-71
2023/06/28 12:14:29;;;;;;;20.40;8.75;;;;;;;;;;4940504;28;20039;-71
2023/06/28 12:16:55;;;;;;;18.75;8.07;;;;;;;;;;4940973;28;20054;-71
2023/06/28 12:19:24;;;;;;;26.08;8.63;;;;;;;;;;4923621;28;20046;-72
2023/06/28 12:21:52;;;;;;;21.05;8.63;;;;;;;;;;4939635;28;20085;-71
2023/06/28 12:24:21;;;;;;;19.50;8.52;;;;;;;;;;4940978;28;20065;-71
2023/06/28 12:26:49;;;;;;;16.17;8.05;;;;;;;;;;4941115;28;20396;-71
2023/06/28 12:29:21;;;;;;;16.02;7.53;;;;;;;;;;4940685;28;20126;-69
2023/06/28 12:31:47;;;;;;;18.23;8.52;;;;;;;;;;4940181;28;20552;-69
2023/06/28 12:34:22;;;;;;;23.15;8.82;;;;;;;;;;4920977;28;20162;-73
2023/06/28 12:36:51;;;;;;;18.80;8.57;;;;;;;;;;4937703;28;20050;-71
2023/06/28 12:39:20;;;;;;;22.08;8.40;;;;;;;;;;4941902;28;20047;-72
2023/06/28 12:42:05;;;;;;;19.67;8.73;;;;;;;;;;4919285;28;20034;-69
2023/06/28 12:44:31;;;;;;;20.90;9.25;;;;;;;;;;4938454;28;20046;-70
2023/06/28 12:46:57;;;;;;;19.50;9.00;;;;;;;;;;4916047;28;20397;-68
2023/06/28 12:49:33;;;;;;;17.42;8.30;;;;;;;;;;4936641;28;20625;-73
2023/06/28 12:51:59;;;;;;;24.98;8.90;;;;;;;;;;4941514;28;20133;-71
2023/06/28 12:54:24;;;;;;;17.98;8.60;;;;;;;;;;4927275;28;20830;-72
2023/06/28 12:56:49;;;;;;;20.35;9.70;;;;;;;;;;4916932;28;20039;-69
2023/06/28 12:59:15;;;;;;;22.52;9.07;;;;;;;;;;4937764;28;20125;-69
2023/06/28 13:01:44;;;;;;;23.88;9.68;;;;;;;;;;4944513;28;20358;-68
2023/06/28 13:04:11;;;;;;;18.70;8.48;;;;;;;;;;4943600;28;20135;-68
2023/06/28 13:06:36;;;;;;;19.42;8.73;;;;;;;;;;4945324;28;20050;-66
2023/06/28 13:09:02;;;;;;;24.95;10.05;;;;;;;;;;4907365;28;20046;-67
2023/06/28 13:11:31;;;;;;;17.88;9.05;;;;;;;;;;4942174;28;20049;-68
2023/06/28 13:13:56;;;;;;;19.33;9.32;;;;;;;;;;4944091;28;20042;-67
2023/06/28 13:16:21;;;;;;;21.25;8.90;;;;;;;;;;4915493;28;20058;-67
2023/06/28 13:18:47;;;;;;;21.58;9.30;;;;;;;;;;4917214;28;20153;-69
2023/06/28 13:21:12;;;;;;;20.23;9.48;;;;;;;;;;4941802;28;20034;-70
2023/06/28 13:23:38;;;;;;;19.70;9.35;;;;;;;;;;4940904;28;21390;-68
2023/06/28 13:26:04;;;;;;;23.35;9.05;;;;;;;;;;4940612;28;20051;-68
2023/06/28 13:28:30;;;;;;;19.98;8.52;;;;;;;;;;4941184;28;20043;-68
2023/06/28 13:30:55;;;;;;;18.45;9.18;;;;;;;;;;4912700;28;20657;-69
2023/06/28 13:33:20;;;;;;;20.83;9.13;;;;;;;;;;4939964;28;20035;-68
2023/06/28 13:35:48;;;;;;;22.42;9.20;;;;;;;;;;4940352;28;20500;-69
2023/06/28 13:38:15;;;;;;;20.38;9.13;;;;;;;;;;4935872;28;20038;-67
2023/06/28 13:40:43;;;;;;;20.27;8.90;;;;;;;;;;4942364;28;20065;-69
2023/06/28 13:43:11;;;;;;;17.30;8.30;;;;;;;;;;4918031;28;20516;-71
2023/06/28 13:45:37;;;;;;;20.70;9.15;;;;;;;;;;4922066;28;20066;-68
2023/06/28 13:48:02;;;;;;;17.70;9.35;;;;;;;;;;4935296;28;20043;-68
2023/06/28 13:50:28;;;;;;;19.83;9.07;;;;;;;;;;4933796;28;20570;-67
2023/06/28 13:52:54;;;;;;;18.65;9.00;;;;;;;;;;4932372;28;20046;-69
2023/06/28 13:55:19;;;;;;;18.77;9.23;;;;;;;;;;4924367;28;20635;-67
2023/06/28 13:57:45;;;;;;;18.35;9.20;;;;;;;;;;4935169;28;20030;-68
2023/06/28 14:00:10;;;;;;;15.60;9.43;;;;;;;;;;4912004;28;20102;-68
2023/06/28 14:02:35;;;;;;;20.70;9.63;;;;;;;;;;4921567;28;20444;-68
2023/06/28 14:05:01;;;;;;;17.95;9.27;;;;;;;;;;4935963;28;20510;-69
2023/06/28 14:07:26;;;;;;;16.15;8.90;;;;;;;;;;4935872;28;20062;-68
2023/06/28 14:09:56;;;;;;;18.55;8.65;;;;;;;;;;4932126;28;20373;-68
2023/06/28 14:12:23;;;;;;;18.02;8.45;;;;;;;;;;4935360;28;20184;-69
2023/06/28 14:14:51;;;;;;;19.77;9.32;;;;;;;;;;4915152;28;20122;-71
2023/06/28 14:17:16;;;;;;;19.83;9.52;;;;;;;;;;4916170;28;20429;-69
2023/06/28 14:19:42;;;;;;;20.02;9.23;;;;;;;;;;4937249;28;20647;-70
2023/06/28 14:22:08;;;;;;;23.55;9.90;;;;;;;;;;4938309;28;20519;-73